createdAt,value
2023-02-03T00:01:19.192Z,4.43
2023-02-03T00:06:22.992Z,5.32
2023-02-03T00:11:25.249Z,5.65
2023-02-03T00:16:27.626Z,6.45
2023-02-03T00:21:31.510Z,4.68
2023-02-03T00:26:33.799Z,6.65
2023-02-03T00:31:36.463Z,4.90
2023-02-03T00:36:42.021Z,6.05
2023-02-03T00:41:49.297Z,6.97
2023-02-03T00:46:51.486Z,6.60
2023-02-03T00:51:55.036Z,7.68
2023-02-03T00:56:57.538Z,6.45
2023-02-03T01:02:02.324Z,4.95
2023-02-03T01:07:08.634Z,6.90
2023-02-03T01:12:11.361Z,6.00
2023-02-03T01:17:13.529Z,7.07
2023-02-03T01:22:17.022Z,7.57
2023-02-03T01:27:19.411Z,5.63
2023-02-03T01:32:21.598Z,6.22
2023-02-03T01:37:27.769Z,5.82
2023-02-03T01:42:37.988Z,6.18
2023-02-03T01:47:47.492Z,4.35
2023-02-03T01:52:54.069Z,5.88
2023-02-03T01:58:00.039Z,5.53
2023-02-03T02:03:03.612Z,4.65
2023-02-03T02:08:10.019Z,5.55
2023-02-03T02:13:16.257Z,3.70
2023-02-03T02:18:29.866Z,3.35
2023-02-03T02:24:08.298Z,3.47
2023-02-03T02:29:29.362Z,2.35
2023-02-03T02:34:47.114Z,3.92
2023-02-03T02:39:54.902Z,2.53
2023-02-03T02:45:10.428Z,2.63
2023-02-03T02:50:20.552Z,6.00
2023-02-03T02:55:26.965Z,1.70
2023-02-03T03:00:31.614Z,3.20
2023-02-03T03:05:35.346Z,1.98
2023-02-03T03:10:39.216Z,2.28
2023-02-03T03:15:42.259Z,1.85
2023-02-03T03:20:48.931Z,1.65
2023-02-03T03:25:58.287Z,1.90
2023-02-03T03:31:00.562Z,1.70
2023-02-03T03:36:17.428Z,1.20
2023-02-03T03:41:29.589Z,0.90
2023-02-03T03:46:36.726Z,0.90
2023-02-03T03:51:48.461Z,0.80
2023-02-03T03:56:55.918Z,1.10
2023-02-03T04:02:04.453Z,0.60
2023-02-03T04:07:08.393Z,0.50
2023-02-03T04:12:19.894Z,0.38
2023-02-03T04:17:22.010Z,0.50
2023-02-03T04:22:25.615Z,0.55
2023-02-03T04:27:30.060Z,0.20
2023-02-03T04:32:32.306Z,0.30
2023-02-03T04:37:39.038Z,0.43
2023-02-03T04:42:41.754Z,0.50
2023-02-03T04:47:54.238Z,0.70
2023-02-03T04:53:00.139Z,0.73
2023-02-03T04:58:02.719Z,0.90
2023-02-03T05:03:05.065Z,1.20
2023-02-03T05:08:11.258Z,1.77
2023-02-03T05:13:14.458Z,1.30
2023-02-03T05:18:16.586Z,1.85
2023-02-03T05:23:20.096Z,1.50
2023-02-03T05:28:22.468Z,1.70
2023-02-03T05:33:27.474Z,1.63
2023-02-03T05:38:31.129Z,1.45
2023-02-03T05:43:33.295Z,1.85
2023-02-03T05:48:35.915Z,1.40
2023-02-03T05:53:39.461Z,1.55
2023-02-03T05:58:42.698Z,2.50
2023-02-03T06:03:46.319Z,1.42
2023-02-03T06:08:52.307Z,1.27
2023-02-03T06:13:54.461Z,1.45
2023-02-03T06:19:01.058Z,2.08
2023-02-03T06:24:04.929Z,1.27
2023-02-03T06:29:07.134Z,1.45
2023-02-03T06:34:10.404Z,1.40
2023-02-03T06:39:17.024Z,1.55
2023-02-03T06:44:24.653Z,1.58
2023-02-03T06:49:26.832Z,1.33
2023-02-03T06:54:30.390Z,1.20
2023-02-03T06:59:32.517Z,1.05
2023-02-03T07:04:34.685Z,1.23
2023-02-03T07:09:41.243Z,0.70
2023-02-03T07:14:43.376Z,1.75
2023-02-03T07:19:46.158Z,1.35
2023-02-03T07:24:49.812Z,1.20
2023-02-03T07:29:52.343Z,1.58
